createdAt,value
2018-03-08T00:00:05.982Z,3.80
2018-03-08T00:01:08.663Z,3.80
2018-03-08T00:02:05.864Z,3.80
2018-03-08T00:03:05.117Z,3.80
2018-03-08T00:04:08.558Z,3.80
2018-03-08T00:05:08.485Z,3.80
2018-03-08T00:06:05.777Z,3.80
2018-03-08T00:07:05.620Z,3.80
2018-03-08T00:08:07.854Z,3.80
2018-03-08T00:09:05.153Z,3.80
2018-03-08T00:10:05.978Z,3.80
2018-03-08T00:11:05.735Z,3.80
2018-03-08T00:12:06.610Z,3.80
2018-03-08T00:13:05.762Z,3.80
2018-03-08T00:14:05.647Z,3.80
2018-03-08T00:15:05.250Z,3.80
2018-03-08T00:16:05.933Z,3.80
2018-03-08T00:17:10.431Z,3.80
2018-03-08T00:18:08.317Z,3.80
2018-03-08T00:19:05.826Z,3.80
2018-03-08T00:20:05.615Z,3.80
2018-03-08T00:21:05.722Z,3.80
2018-03-08T00:22:05.419Z,3.80
2018-03-08T00:23:05.310Z,3.80
2018-03-08T00:24:07.860Z,3.80
2018-03-08T00:25:05.109Z,3.80
2018-03-08T00:26:10.422Z,3.80
2018-03-08T00:27:11.211Z,3.80
2018-03-08T00:28:09.072Z,3.80
2018-03-08T00:29:05.376Z,3.80
2018-03-08T00:30:05.326Z,3.80
2018-03-08T00:31:08.414Z,3.80
2018-03-08T00:32:05.679Z,3.80
2018-03-08T00:33:11.177Z,3.90
2018-03-08T00:34:08.614Z,3.80
2018-03-08T00:35:05.899Z,3.90
2018-03-08T00:36:05.660Z,3.80
2018-03-08T00:37:08.340Z,3.80
2018-03-08T00:38:05.809Z,3.80
2018-03-08T00:39:05.495Z,3.90
2018-03-08T00:40:05.187Z,3.90
2018-03-08T00:41:09.761Z,3.90
2018-03-08T00:42:05.492Z,3.90
2018-03-08T00:43:05.248Z,3.90
2018-03-08T00:44:05.851Z,3.90
2018-03-08T00:45:05.887Z,3.90
2018-03-08T00:46:05.523Z,3.90
2018-03-08T00:47:07.741Z,3.90
2018-03-08T00:48:06.176Z,3.90
2018-03-08T00:49:05.919Z,3.90
2018-03-08T00:50:05.637Z,3.90
2018-03-08T00:51:05.015Z,3.90
2018-03-08T00:52:05.274Z,3.90
2018-03-08T00:53:05.104Z,3.90
2018-03-08T00:54:08.366Z,3.90
2018-03-08T00:55:05.354Z,3.90
2018-03-08T00:56:05.274Z,3.90
2018-03-08T00:57:05.833Z,3.90
2018-03-08T00:58:08.208Z,3.90
2018-03-08T00:59:08.036Z,3.90
2018-03-08T01:00:10.394Z,3.90
2018-03-08T01:01:10.440Z,3.90
2018-03-08T01:02:08.467Z,3.90
2018-03-08T01:03:05.737Z,4.00
2018-03-08T01:04:05.584Z,4.00
2018-03-08T01:05:05.310Z,3.90
2018-03-08T01:06:10.412Z,4.00
2018-03-08T01:07:06.021Z,4.00
2018-03-08T01:08:08.975Z,4.00
2018-03-08T01:09:08.042Z,3.90
2018-03-08T01:10:05.325Z,3.90
2018-03-08T01:11:10.838Z,3.90
2018-03-08T01:12:05.268Z,3.90
2018-03-08T01:13:07.805Z,3.90
2018-03-08T01:14:07.784Z,3.90
2018-03-08T01:15:07.817Z,3.90
2018-03-08T01:16:07.852Z,3.90
2018-03-08T01:17:08.099Z,3.90
2018-03-08T01:18:05.436Z,3.90
2018-03-08T01:19:10.512Z,3.90
2018-03-08T01:20:07.876Z,3.90
2018-03-08T01:21:07.934Z,3.90
2018-03-08T01:22:05.417Z,3.90
2018-03-08T01:23:05.133Z,3.90
2018-03-08T01:24:05.682Z,3.90
2018-03-08T01:25:05.379Z,3.90
2018-03-08T01:26:05.367Z,3.90
2018-03-08T01:27:05.164Z,3.90
2018-03-08T01:28:06.340Z,3.90
2018-03-08T01:29:11.172Z,3.90
2018-03-08T01:30:05.634Z,3.90
2018-03-08T01:31:07.834Z,3.90
2018-03-08T01:32:11.181Z,3.90
2018-03-08T01:33:08.166Z,3.90
2018-03-08T01:34:05.119Z,3.90
2018-03-08T01:35:07.877Z,3.90
2018-03-08T01:36:08.124Z,3.90
2018-03-08T01:37:05.433Z,3.90
2018-03-08T01:38:07.990Z,3.90
2018-03-08T01:39:08.635Z,3.90
2018-03-08T01:40:06.185Z,3.90
2018-03-08T01:41:05.383Z,3.90
2018-03-08T01:42:05.120Z,3.90
2018-03-08T01:43:05.170Z,3.90
2018-03-08T01:44:10.925Z,3.90
2018-03-08T01:45:05.492Z,3.90
2018-03-08T01:46:07.855Z,3.90
2018-03-08T01:47:09.044Z,3.90
2018-03-08T01:48:06.441Z,3.90
2018-03-08T01:49:05.727Z,3.90
2018-03-08T01:50:05.627Z,3.90
2018-03-08T01:51:10.900Z,3.90
2018-03-08T01:52:05.316Z,3.90
2018-03-08T01:53:05.215Z,3.90
2018-03-08T01:54:05.309Z,3.90
2018-03-08T01:55:05.600Z,3.90
2018-03-08T01:56:10.832Z,3.90
2018-03-08T01:57:09.107Z,3.90
2018-03-08T01:58:05.641Z,3.90
2018-03-08T01:59:05.263Z,4.00
2018-03-08T02:00:10.155Z,3.90
2018-03-08T02:01:08.553Z,3.90
2018-03-08T02:02:05.835Z,3.90
2018-03-08T02:03:09.111Z,4.00
2018-03-08T02:04:05.561Z,3.90
2018-03-08T02:05:05.345Z,3.90
2018-03-08T02:06:05.172Z,4.00
2018-03-08T02:07:05.847Z,3.90
2018-03-08T02:08:05.466Z,3.90
2018-03-08T02:09:08.354Z,3.90
2018-03-08T02:10:10.886Z,3.90
2018-03-08T02:11:05.254Z,3.90
2018-03-08T02:12:05.163Z,3.90
2018-03-08T02:13:06.181Z,4.00
2018-03-08T02:14:06.159Z,3.90
2018-03-08T02:15:05.797Z,4.00
2018-03-08T02:16:05.736Z,3.90
2018-03-08T02:17:05.512Z,3.90
2018-03-08T02:18:05.279Z,4.00
2018-03-08T02:19:05.182Z,4.00
2018-03-08T02:20:05.949Z,4.00
2018-03-08T02:21:05.760Z,4.00
2018-03-08T02:22:05.593Z,3.90
2018-03-08T02:23:05.599Z,4.00
2018-03-08T02:24:05.162Z,4.00
2018-03-08T02:25:04.981Z,4.00
2018-03-08T02:26:06.020Z,4.00
2018-03-08T02:27:06.180Z,4.00
2018-03-08T02:28:08.038Z,4.00
2018-03-08T02:29:08.274Z,3.90
2018-03-08T02:30:08.319Z,4.00
2018-03-08T02:31:05.866Z,3.90
2018-03-08T02:32:11.203Z,4.00
2018-03-08T02:33:05.612Z,3.90
2018-03-08T02:34:10.528Z,4.00
2018-03-08T02:35:13.578Z,3.90
2018-03-08T02:36:07.869Z,3.90
2018-03-08T02:37:05.092Z,3.90
2018-03-08T02:38:05.911Z,4.00
2018-03-08T02:39:08.108Z,3.90
2018-03-08T02:40:05.410Z,3.90
2018-03-08T02:41:05.298Z,3.90
2018-03-08T02:42:08.222Z,3.90
2018-03-08T02:43:08.453Z,3.90
2018-03-08T02:44:08.813Z,3.90
2018-03-08T02:45:05.127Z,3.90
2018-03-08T02:46:09.637Z,3.90
2018-03-08T02:47:10.544Z,3.90
2018-03-08T02:48:04.974Z,3.90
2018-03-08T02:49:05.662Z,3.90
2018-03-08T02:50:05.830Z,3.90
2018-03-08T02:51:05.967Z,3.90
2018-03-08T02:52:06.032Z,4.00
2018-03-08T02:53:05.970Z,3.90
2018-03-08T02:54:05.672Z,3.90
2018-03-08T02:55:07.893Z,3.90
2018-03-08T02:56:08.032Z,3.90
2018-03-08T02:57:05.270Z,3.90
2018-03-08T02:58:05.511Z,3.90
2018-03-08T02:59:05.328Z,3.90
2018-03-08T03:00:05.332Z,3.90
2018-03-08T03:01:07.888Z,3.90
2018-03-08T03:02:10.576Z,3.90
2018-03-08T03:03:07.972Z,3.90
2018-03-08T03:04:10.522Z,3.90
2018-03-08T03:05:06.028Z,3.90
2018-03-08T03:06:05.994Z,3.90
2018-03-08T03:07:05.795Z,3.90
2018-03-08T03:08:05.020Z,3.90
2018-03-08T03:09:05.873Z,3.90
2018-03-08T03:10:10.938Z,3.90
2018-03-08T03:11:05.360Z,3.90
2018-03-08T03:12:06.166Z,3.90
2018-03-08T03:13:05.215Z,3.90
2018-03-08T03:14:05.950Z,3.90
2018-03-08T03:15:06.057Z,3.90
2018-03-08T03:16:08.654Z,4.00
2018-03-08T03:17:05.976Z,3.90
2018-03-08T03:18:09.271Z,3.90
2018-03-08T03:19:10.231Z,3.90
2018-03-08T03:20:05.819Z,3.90
2018-03-08T03:21:05.354Z,4.00
2018-03-08T03:22:05.168Z,3.90
2018-03-08T03:23:07.885Z,3.90
2018-03-08T03:24:07.887Z,3.90
2018-03-08T03:25:05.156Z,4.00
2018-03-08T03:26:08.614Z,3.90
2018-03-08T03:27:08.849Z,3.90
2018-03-08T03:28:05.087Z,4.00
2018-03-08T03:29:04.977Z,4.00
2018-03-08T03:30:05.846Z,4.00
2018-03-08T03:31:10.956Z,3.90
2018-03-08T03:32:05.359Z,3.90
2018-03-08T03:33:05.323Z,3.90
2018-03-08T03:34:07.904Z,3.90
2018-03-08T03:35:07.948Z,3.90
2018-03-08T03:36:05.235Z,4.00
2018-03-08T03:37:08.708Z,3.90
2018-03-08T03:38:11.282Z,3.90
2018-03-08T03:39:05.741Z,3.90
2018-03-08T03:40:05.683Z,3.90
2018-03-08T03:41:05.448Z,3.90
2018-03-08T03:42:05.129Z,3.90
2018-03-08T03:43:12.927Z,3.90
2018-03-08T03:44:05.584Z,3.90
2018-03-08T03:45:08.118Z,3.90
2018-03-08T03:46:05.368Z,3.90
2018-03-08T03:47:05.637Z,3.90
2018-03-08T03:48:05.677Z,3.90
2018-03-08T03:49:05.244Z,3.90
2018-03-08T03:50:05.326Z,3.90
2018-03-08T03:51:10.132Z,3.90
2018-03-08T03:52:05.208Z,3.90
2018-03-08T03:53:11.466Z,3.90
2018-03-08T03:54:07.767Z,3.90
2018-03-08T03:55:12.866Z,3.90
2018-03-08T03:56:05.281Z,3.90
2018-03-08T03:57:08.738Z,3.90
2018-03-08T03:58:07.796Z,3.90
2018-03-08T03:59:05.120Z,3.80
2018-03-08T04:00:05.862Z,3.90
2018-03-08T04:01:05.344Z,3.90
2018-03-08T04:02:10.214Z,3.90
2018-03-08T04:03:10.961Z,3.90
2018-03-08T04:04:05.443Z,3.80
2018-03-08T04:05:05.657Z,3.90
2018-03-08T04:06:05.356Z,3.90
2018-03-08T04:07:05.290Z,3.80
2018-03-08T04:08:05.560Z,3.80
2018-03-08T04:09:05.557Z,3.80
2018-03-08T04:10:05.538Z,3.80
2018-03-08T04:11:05.297Z,3.80
2018-03-08T04:12:05.223Z,3.90
2018-03-08T04:13:05.326Z,3.90
2018-03-08T04:14:05.506Z,3.80
2018-03-08T04:15:06.277Z,3.80
2018-03-08T04:16:05.788Z,3.90
2018-03-08T04:17:05.891Z,3.90
2018-03-08T04:18:05.760Z,3.90
2018-03-08T04:19:05.338Z,3.80
2018-03-08T04:20:04.944Z,3.90
2018-03-08T04:21:08.818Z,3.90
2018-03-08T04:22:08.198Z,3.90
2018-03-08T04:23:08.276Z,3.90
2018-03-08T04:24:08.325Z,3.90
2018-03-08T04:25:08.421Z,3.90
2018-03-08T04:26:08.484Z,3.90
2018-03-08T04:27:05.790Z,3.80
2018-03-08T04:28:10.997Z,3.80
2018-03-08T04:29:05.397Z,3.80
2018-03-08T04:30:05.069Z,3.90
2018-03-08T04:31:12.137Z,3.80
2018-03-08T04:32:05.476Z,3.80
2018-03-08T04:33:05.294Z,3.90
2018-03-08T04:34:10.288Z,3.80
2018-03-08T04:35:11.047Z,3.80
2018-03-08T04:36:11.014Z,3.80
2018-03-08T04:37:05.380Z,3.80
2018-03-08T04:38:08.511Z,3.80
2018-03-08T04:39:05.775Z,3.80
2018-03-08T04:40:05.264Z,3.80
2018-03-08T04:41:05.070Z,3.80
2018-03-08T04:42:05.778Z,3.80
2018-03-08T04:43:05.620Z,3.80
2018-03-08T04:44:05.366Z,3.80
2018-03-08T04:45:08.604Z,3.80
2018-03-08T04:46:05.998Z,3.80
2018-03-08T04:47:05.625Z,3.80
2018-03-08T04:48:07.958Z,3.80
2018-03-08T04:49:07.731Z,3.80
2018-03-08T04:50:04.984Z,3.80
2018-03-08T04:51:08.060Z,3.80
2018-03-08T04:52:05.300Z,3.80
2018-03-08T04:53:13.007Z,3.80
2018-03-08T04:54:05.391Z,3.80
2018-03-08T04:55:05.366Z,3.80
2018-03-08T04:56:05.112Z,3.80
2018-03-08T04:57:05.800Z,3.80
2018-03-08T04:58:08.897Z,3.80
2018-03-08T04:59:05.210Z,3.80
2018-03-08T05:00:05.299Z,3.80
2018-03-08T05:01:05.018Z,3.80
2018-03-08T05:02:05.755Z,3.80
2018-03-08T05:03:05.411Z,3.80
2018-03-08T05:04:05.090Z,3.80
2018-03-08T05:05:05.819Z,3.80
2018-03-08T05:06:08.414Z,3.80
2018-03-08T05:07:09.171Z,3.80
2018-03-08T05:08:10.611Z,3.80
2018-03-08T05:09:08.296Z,3.80
2018-03-08T05:10:05.593Z,3.80
2018-03-08T05:11:05.051Z,3.80
2018-03-08T05:12:05.065Z,3.80
2018-03-08T05:13:08.448Z,3.80
2018-03-08T05:14:06.358Z,3.80
2018-03-08T05:15:10.648Z,3.80
2018-03-08T05:16:07.880Z,3.80
2018-03-08T05:17:05.192Z,3.80
2018-03-08T05:18:11.083Z,3.80
2018-03-08T05:19:05.698Z,3.80
2018-03-08T05:20:05.503Z,3.80
2018-03-08T05:21:05.051Z,3.80
2018-03-08T05:22:05.839Z,3.80
2018-03-08T05:23:11.038Z,3.80
2018-03-08T05:24:08.372Z,3.80
2018-03-08T05:25:06.015Z,3.80
2018-03-08T05:26:07.955Z,3.80
2018-03-08T05:27:08.093Z,3.80
2018-03-08T05:28:05.583Z,3.80
2018-03-08T05:29:05.569Z,3.80
2018-03-08T05:30:05.991Z,3.80
2018-03-08T05:31:05.730Z,3.80
2018-03-08T05:32:08.233Z,3.80
2018-03-08T05:33:08.266Z,3.80
2018-03-08T05:34:08.483Z,3.80
2018-03-08T05:35:05.788Z,3.80
2018-03-08T05:36:08.362Z,3.80
2018-03-08T05:37:05.724Z,3.80
2018-03-08T05:38:05.446Z,3.80
2018-03-08T05:39:05.341Z,3.70
2018-03-08T05:40:05.193Z,3.70
2018-03-08T05:41:04.976Z,3.70
2018-03-08T05:42:05.019Z,3.70
2018-03-08T05:43:05.865Z,3.70
2018-03-08T05:44:08.571Z,3.70
2018-03-08T05:45:08.750Z,3.70
2018-03-08T05:46:05.289Z,3.70
2018-03-08T05:47:05.467Z,3.70
2018-03-08T05:48:05.858Z,3.70
2018-03-08T05:49:05.860Z,3.70
2018-03-08T05:50:05.156Z,3.70
2018-03-08T05:51:06.099Z,3.70
2018-03-08T05:52:11.108Z,3.70
2018-03-08T05:53:05.721Z,3.70
2018-03-08T05:54:05.504Z,3.70
2018-03-08T05:55:05.180Z,3.70
2018-03-08T05:56:08.721Z,3.70
2018-03-08T05:57:04.996Z,3.70
2018-03-08T05:58:05.661Z,3.70
2018-03-08T05:59:08.303Z,3.70
2018-03-08T06:00:05.581Z,3.70
2018-03-08T06:01:05.773Z,3.70
2018-03-08T06:02:10.737Z,3.70
2018-03-08T06:03:05.253Z,3.70
2018-03-08T06:04:05.750Z,3.70
2018-03-08T06:05:05.867Z,3.60
2018-03-08T06:06:05.867Z,3.70
2018-03-08T06:07:05.897Z,3.60
2018-03-08T06:08:05.341Z,3.70
2018-03-08T06:09:08.011Z,3.70
2018-03-08T06:10:08.424Z,3.70
2018-03-08T06:11:07.836Z,3.60
2018-03-08T06:12:10.230Z,3.70
2018-03-08T06:13:08.465Z,3.70
2018-03-08T06:14:05.739Z,3.70
2018-03-08T06:15:08.448Z,3.70
2018-03-08T06:16:05.755Z,3.70
2018-03-08T06:17:05.657Z,3.70
2018-03-08T06:18:05.446Z,3.70
2018-03-08T06:19:05.735Z,3.70
2018-03-08T06:20:05.577Z,3.70
2018-03-08T06:21:07.706Z,3.70
2018-03-08T06:22:08.340Z,3.70
2018-03-08T06:23:05.872Z,3.70
2018-03-08T06:24:05.541Z,3.70
2018-03-08T06:25:05.959Z,3.70
2018-03-08T06:26:05.721Z,3.70
2018-03-08T06:27:05.913Z,3.70
2018-03-08T06:28:05.750Z,3.70
2018-03-08T06:29:08.172Z,3.70
2018-03-08T06:30:05.569Z,3.70
2018-03-08T06:31:05.001Z,3.70
2018-03-08T06:32:08.698Z,3.70
2018-03-08T06:33:10.018Z,3.70
2018-03-08T06:34:10.725Z,3.70
2018-03-08T06:35:05.100Z,3.70
2018-03-08T06:36:11.089Z,3.70
2018-03-08T06:37:07.963Z,3.80
2018-03-08T06:38:05.097Z,3.70
2018-03-08T06:39:08.691Z,3.80
2018-03-08T06:40:05.962Z,3.80
2018-03-08T06:41:09.715Z,3.80
2018-03-08T06:42:05.852Z,3.80
2018-03-08T06:43:04.981Z,3.80
2018-03-08T06:44:05.675Z,3.80
2018-03-08T06:45:05.397Z,3.80
2018-03-08T06:46:05.313Z,3.80
2018-03-08T06:47:10.715Z,3.80
2018-03-08T06:48:05.121Z,3.80
2018-03-08T06:49:09.662Z,3.80
2018-03-08T06:50:05.051Z,3.90
2018-03-08T06:51:11.118Z,3.80
2018-03-08T06:52:05.531Z,3.90
2018-03-08T06:53:08.426Z,4.00
2018-03-08T06:54:05.786Z,4.00
2018-03-08T06:55:05.788Z,4.00
2018-03-08T06:56:05.527Z,4.10
2018-03-08T06:57:05.485Z,4.30
2018-03-08T06:58:05.249Z,4.40
2018-03-08T06:59:13.785Z,4.70
2018-03-08T07:00:05.250Z,4.70
2018-03-08T07:01:05.957Z,4.80
2018-03-08T07:02:05.368Z,5.00
2018-03-08T07:03:05.133Z,5.10
2018-03-08T07:04:09.329Z,5.30
2018-03-08T07:05:05.097Z,5.30
2018-03-08T07:06:07.562Z,5.50
2018-03-08T07:07:05.825Z,5.50
2018-03-08T07:08:08.732Z,5.70
2018-03-08T07:09:10.194Z,5.80
2018-03-08T07:10:05.456Z,5.80
2018-03-08T07:11:08.163Z,5.90
2018-03-08T07:12:05.474Z,6.00
2018-03-08T07:13:05.677Z,6.00
2018-03-08T07:14:05.938Z,6.10
2018-03-08T07:15:05.169Z,6.10
2018-03-08T07:16:05.407Z,6.30
2018-03-08T07:17:10.804Z,6.30
2018-03-08T07:18:05.469Z,6.30
2018-03-08T07:19:07.984Z,6.50
2018-03-08T07:20:10.426Z,6.50
2018-03-08T07:21:05.081Z,6.50
2018-03-08T07:22:05.927Z,6.60
2018-03-08T07:23:05.913Z,6.60
2018-03-08T07:24:06.678Z,6.70
2018-03-08T07:25:08.819Z,6.70
2018-03-08T07:26:08.127Z,6.80
2018-03-08T07:27:05.439Z,6.70
2018-03-08T07:28:10.684Z,6.80
2018-03-08T07:29:05.089Z,6.90
2018-03-08T07:30:05.587Z,6.90
2018-03-08T07:31:08.548Z,6.90
2018-03-08T07:32:08.649Z,6.90
2018-03-08T07:33:05.045Z,6.90
2018-03-08T07:34:07.883Z,6.90
2018-03-08T07:35:05.607Z,6.90
2018-03-08T07:36:10.680Z,6.90
2018-03-08T07:37:05.124Z,6.90
2018-03-08T07:38:11.152Z,7.00
2018-03-08T07:39:05.483Z,7.00
2018-03-08T07:40:06.363Z,7.00
2018-03-08T07:41:05.580Z,7.00
2018-03-08T07:42:08.012Z,7.10
2018-03-08T07:43:05.358Z,7.00
2018-03-08T07:44:05.982Z,7.00
2018-03-08T07:45:05.691Z,7.00
2018-03-08T07:46:05.838Z,7.00
2018-03-08T07:47:08.239Z,6.90
2018-03-08T07:48:05.467Z,6.90
2018-03-08T07:49:05.189Z,6.90
2018-03-08T07:50:05.988Z,6.80
2018-03-08T07:51:11.179Z,6.90
2018-03-08T07:52:05.701Z,6.90
2018-03-08T07:53:08.967Z,6.90
2018-03-08T07:54:05.428Z,6.90
2018-03-08T07:55:11.207Z,6.90
2018-03-08T07:56:05.852Z,6.90
2018-03-08T07:57:05.738Z,6.90
2018-03-08T07:58:05.389Z,6.90
2018-03-08T07:59:05.195Z,6.90
2018-03-08T08:00:08.756Z,6.90
2018-03-08T08:01:05.008Z,6.90
2018-03-08T08:02:08.633Z,6.90
2018-03-08T08:03:05.937Z,6.90
2018-03-08T08:04:05.630Z,6.90
2018-03-08T08:05:05.282Z,6.90
2018-03-08T08:06:05.100Z,7.00
2018-03-08T08:07:05.848Z,7.00
2018-03-08T08:08:05.476Z,7.00
2018-03-08T08:09:05.386Z,7.00
2018-03-08T08:10:13.013Z,6.90
2018-03-08T08:11:05.388Z,6.90
2018-03-08T08:12:05.249Z,7.00
2018-03-08T08:13:05.216Z,7.00
2018-03-08T08:14:07.742Z,7.10
2018-03-08T08:15:05.039Z,7.00
2018-03-08T08:16:05.591Z,7.10
2018-03-08T08:17:08.843Z,7.20
2018-03-08T08:18:07.729Z,7.20
2018-03-08T08:19:10.034Z,7.20
2018-03-08T08:20:05.194Z,7.20
2018-03-08T08:21:05.971Z,7.30
2018-03-08T08:22:05.703Z,7.30
2018-03-08T08:23:08.355Z,7.30
2018-03-08T08:24:08.849Z,7.40
2018-03-08T08:25:07.697Z,7.40
2018-03-08T08:26:08.468Z,7.40
2018-03-08T08:27:11.145Z,7.40
2018-03-08T08:28:05.624Z,7.40
2018-03-08T08:29:10.073Z,7.30
2018-03-08T08:30:05.218Z,7.30
2018-03-08T08:31:08.611Z,7.20
2018-03-08T08:32:06.131Z,7.20
2018-03-08T08:33:05.230Z,7.10
2018-03-08T08:34:08.218Z,7.00
2018-03-08T08:35:05.754Z,6.90
2018-03-08T08:36:05.632Z,6.90
2018-03-08T08:37:05.641Z,6.80
2018-03-08T08:38:05.266Z,6.70
2018-03-08T08:39:05.098Z,6.70
2018-03-08T08:40:06.141Z,6.60
2018-03-08T08:41:05.924Z,6.50
2018-03-08T08:42:05.458Z,6.50
2018-03-08T08:43:05.313Z,6.40
2018-03-08T08:44:05.745Z,6.30
2018-03-08T08:45:05.546Z,6.40
2018-03-08T08:46:05.151Z,6.40
2018-03-08T08:47:05.285Z,6.40
2018-03-08T08:48:05.031Z,6.40
2018-03-08T08:49:05.957Z,6.50
2018-03-08T08:50:08.178Z,6.50
2018-03-08T08:51:08.310Z,6.60
2018-03-08T08:52:05.511Z,6.60
2018-03-08T08:53:05.941Z,6.60
2018-03-08T08:54:08.502Z,6.70
2018-03-08T08:55:05.832Z,6.70
2018-03-08T08:56:08.553Z,6.70
2018-03-08T08:57:05.850Z,6.80
2018-03-08T08:58:05.461Z,6.80
2018-03-08T08:59:08.031Z,6.80
2018-03-08T09:00:08.256Z,6.90
2018-03-08T09:01:06.597Z,6.90
2018-03-08T09:02:05.171Z,6.90
2018-03-08T09:03:05.291Z,6.90
2018-03-08T09:04:04.978Z,6.90
2018-03-08T09:05:05.580Z,6.90
2018-03-08T09:06:07.913Z,6.70
2018-03-08T09:07:05.899Z,6.70
2018-03-08T09:08:05.806Z,6.70
2018-03-08T09:09:05.605Z,6.70
2018-03-08T09:10:05.271Z,6.60
2018-03-08T09:11:04.987Z,6.60
2018-03-08T09:12:05.390Z,6.60
2018-03-08T09:13:05.213Z,6.60
2018-03-08T09:14:05.026Z,6.60
2018-03-08T09:15:06.106Z,6.60
2018-03-08T09:16:08.439Z,6.70
2018-03-08T09:17:10.909Z,6.70
2018-03-08T09:18:05.532Z,6.70
2018-03-08T09:19:05.171Z,6.70
2018-03-08T09:20:05.872Z,6.80
2018-03-08T09:21:05.813Z,6.80
2018-03-08T09:22:05.667Z,6.90
2018-03-08T09:23:05.842Z,7.00
2018-03-08T09:24:08.269Z,7.00
2018-03-08T09:25:05.812Z,7.10
2018-03-08T09:26:05.762Z,7.00
2018-03-08T09:27:08.194Z,7.10
2018-03-08T09:28:05.246Z,7.10
2018-03-08T09:29:05.454Z,7.20
2018-03-08T09:30:08.091Z,7.20
2018-03-08T09:31:05.330Z,7.20
2018-03-08T09:32:05.072Z,7.20
2018-03-08T09:33:06.928Z,7.30
2018-03-08T09:34:10.103Z,7.30
2018-03-08T09:35:05.336Z,7.30
2018-03-08T09:36:05.017Z,7.40
2018-03-08T09:37:05.472Z,7.40
2018-03-08T09:38:05.027Z,7.40
2018-03-08T09:39:05.401Z,7.50
2018-03-08T09:40:10.893Z,7.50
2018-03-08T09:41:10.111Z,7.50
2018-03-08T09:42:10.250Z,7.50
2018-03-08T09:43:05.935Z,7.50
2018-03-08T09:44:05.723Z,7.60
2018-03-08T09:45:08.484Z,7.70
2018-03-08T09:46:08.850Z,7.70
2018-03-08T09:47:10.135Z,7.70
2018-03-08T09:48:10.455Z,7.70
2018-03-08T09:49:05.928Z,7.80
2018-03-08T09:50:08.325Z,7.80
2018-03-08T09:51:05.612Z,7.80
2018-03-08T09:52:05.539Z,7.90
2018-03-08T09:53:05.520Z,7.90
2018-03-08T09:54:08.743Z,7.90
2018-03-08T09:55:05.097Z,7.90
2018-03-08T09:56:05.334Z,8.00
2018-03-08T09:57:05.204Z,8.00
2018-03-08T09:58:04.997Z,8.00
2018-03-08T09:59:05.972Z,8.10
2018-03-08T10:00:05.186Z,8.10
2018-03-08T10:01:08.544Z,8.10
2018-03-08T10:02:05.770Z,8.10
2018-03-08T10:03:08.458Z,8.20
2018-03-08T10:04:05.714Z,8.20
2018-03-08T10:05:08.523Z,8.20
2018-03-08T10:06:08.794Z,8.20
2018-03-08T10:07:10.154Z,8.20
2018-03-08T10:08:10.281Z,8.30
2018-03-08T10:09:10.854Z,8.30
2018-03-08T10:10:05.640Z,8.30
2018-03-08T10:11:08.212Z,8.30
2018-03-08T10:12:05.504Z,8.30
2018-03-08T10:13:05.499Z,8.40
2018-03-08T10:14:10.130Z,8.40
2018-03-08T10:15:07.967Z,8.50
2018-03-08T10:16:05.549Z,8.50
2018-03-08T10:17:08.376Z,8.50
2018-03-08T10:18:05.879Z,8.50
2018-03-08T10:19:05.262Z,8.50
2018-03-08T10:20:05.112Z,8.50
2018-03-08T10:21:05.840Z,8.50
2018-03-08T10:22:05.904Z,8.50
2018-03-08T10:23:08.456Z,8.60
2018-03-08T10:24:08.537Z,8.60
2018-03-08T10:25:11.297Z,8.60
2018-03-08T10:26:13.536Z,8.60
2018-03-08T10:27:05.923Z,8.60
2018-03-08T10:28:05.738Z,8.70
2018-03-08T10:29:05.660Z,8.70
2018-03-08T10:30:05.878Z,8.60
2018-03-08T10:31:08.712Z,8.60
2018-03-08T10:32:05.115Z,8.60
2018-03-08T10:33:05.739Z,8.50
2018-03-08T10:34:08.379Z,8.50
2018-03-08T10:35:10.910Z,8.40
2018-03-08T10:36:08.327Z,8.40
2018-03-08T10:37:05.620Z,8.40
2018-03-08T10:38:05.232Z,8.40
2018-03-08T10:40:05.548Z,8.40
2018-03-08T10:41:05.535Z,8.40
2018-03-08T10:42:05.042Z,8.40
2018-03-08T10:43:06.020Z,8.40
2018-03-08T10:44:06.130Z,8.50
2018-03-08T10:45:08.764Z,8.50
2018-03-08T10:46:07.962Z,8.60
2018-03-08T10:47:05.250Z,8.60
2018-03-08T10:48:11.316Z,8.60
2018-03-08T10:49:06.009Z,8.70
2018-03-08T10:50:08.622Z,8.70
2018-03-08T10:51:05.977Z,8.70
2018-03-08T10:52:08.614Z,8.70
2018-03-08T10:53:05.871Z,8.70
2018-03-08T10:54:05.892Z,8.70
2018-03-08T10:55:10.958Z,8.60
2018-03-08T10:56:05.374Z,8.60
2018-03-08T10:57:05.505Z,8.60
2018-03-08T10:58:05.419Z,8.50
2018-03-08T10:59:05.751Z,8.50
2018-03-08T11:00:10.893Z,8.50
2018-03-08T11:01:05.340Z,8.40
2018-03-08T11:02:08.794Z,8.30
2018-03-08T11:03:06.789Z,8.40
2018-03-08T11:04:06.133Z,8.30
2018-03-08T11:05:05.851Z,8.30
2018-03-08T11:06:07.998Z,8.20
2018-03-08T11:07:05.297Z,8.20
2018-03-08T11:08:05.223Z,8.30
2018-03-08T11:09:08.067Z,8.20
2018-03-08T11:10:06.352Z,8.20
2018-03-08T11:11:05.333Z,8.30
2018-03-08T11:12:05.933Z,8.30
2018-03-08T11:13:09.087Z,8.30
2018-03-08T11:14:05.489Z,8.30
2018-03-08T11:15:10.003Z,8.40
2018-03-08T11:16:05.446Z,8.40
2018-03-08T11:17:08.043Z,8.50
2018-03-08T11:18:10.622Z,8.50
2018-03-08T11:19:10.641Z,8.50
2018-03-08T11:20:05.159Z,8.50
2018-03-08T11:21:08.898Z,8.40
2018-03-08T11:22:05.214Z,8.40
2018-03-08T11:23:05.534Z,8.40
2018-03-08T11:24:05.322Z,8.40
2018-03-08T11:25:07.896Z,8.30
2018-03-08T11:26:05.126Z,8.30
2018-03-08T11:27:07.913Z,8.30
2018-03-08T11:28:05.489Z,8.30
2018-03-08T11:29:05.395Z,8.40
2018-03-08T11:30:10.155Z,8.40
2018-03-08T11:31:06.609Z,8.40
2018-03-08T11:32:05.051Z,8.50
2018-03-08T11:33:06.051Z,8.60
2018-03-08T11:34:07.997Z,8.70
2018-03-08T11:35:05.329Z,8.60
2018-03-08T11:36:05.220Z,8.70
2018-03-08T11:37:05.272Z,8.70
2018-03-08T11:38:08.749Z,8.60
2018-03-08T11:39:05.284Z,8.60
2018-03-08T11:40:09.576Z,8.60
2018-03-08T11:41:05.067Z,8.60
2018-03-08T11:42:05.684Z,8.60
2018-03-08T11:43:08.398Z,8.50
2018-03-08T11:44:05.710Z,8.50
2018-03-08T11:45:05.843Z,8.50
2018-03-08T11:46:06.734Z,8.50
2018-03-08T11:47:05.351Z,8.50
2018-03-08T11:48:04.955Z,8.50
2018-03-08T11:49:05.975Z,8.60
2018-03-08T11:50:05.928Z,8.60
2018-03-08T11:51:05.805Z,8.60
2018-03-08T11:52:05.585Z,8.70
2018-03-08T11:53:05.809Z,8.80
2018-03-08T11:54:05.909Z,8.80
2018-03-08T11:55:05.774Z,8.90
2018-03-08T11:56:06.016Z,9.00
2018-03-08T11:57:05.901Z,9.00
2018-03-08T11:58:13.298Z,9.20
2018-03-08T11:59:05.705Z,9.20
2018-03-08T12:00:05.392Z,9.20
2018-03-08T12:01:07.850Z,9.30
2018-03-08T12:02:05.156Z,9.30
2018-03-08T12:03:08.678Z,9.30
2018-03-08T12:04:05.967Z,9.30
2018-03-08T12:05:10.657Z,9.30
2018-03-08T12:06:05.277Z,9.30
2018-03-08T12:07:08.701Z,9.30
2018-03-08T12:08:05.017Z,9.30
2018-03-08T12:09:08.839Z,9.30
2018-03-08T12:10:05.370Z,9.30
2018-03-08T12:11:05.513Z,9.20
2018-03-08T12:12:10.674Z,9.20
2018-03-08T12:13:05.260Z,9.30
2018-03-08T12:14:09.203Z,9.30
2018-03-08T12:15:05.490Z,9.30
2018-03-08T12:16:05.525Z,9.30
2018-03-08T12:17:05.507Z,9.40
2018-03-08T12:18:07.906Z,9.40
2018-03-08T12:19:08.044Z,9.40
2018-03-08T12:20:05.089Z,9.40
2018-03-08T12:21:05.611Z,9.50
2018-03-08T12:22:05.467Z,9.50
2018-03-08T12:23:05.105Z,9.40
2018-03-08T12:24:05.219Z,9.50
2018-03-08T12:25:05.102Z,9.50
2018-03-08T12:26:05.331Z,9.50
2018-03-08T12:27:05.414Z,9.50
2018-03-08T12:28:05.838Z,9.40
2018-03-08T12:29:06.012Z,9.40
2018-03-08T12:30:05.943Z,9.30
2018-03-08T12:31:08.443Z,9.20
2018-03-08T12:32:05.788Z,9.20
2018-03-08T12:33:05.592Z,9.20
2018-03-08T12:34:05.649Z,9.10
2018-03-08T12:35:08.118Z,9.00
2018-03-08T12:36:05.377Z,9.00
2018-03-08T12:37:11.090Z,9.00
2018-03-08T12:38:10.974Z,8.90
2018-03-08T12:39:08.519Z,8.90
2018-03-08T12:40:05.795Z,8.90
2018-03-08T12:41:05.705Z,8.90
2018-03-08T12:42:08.778Z,8.80
2018-03-08T12:43:10.151Z,8.80
2018-03-08T12:44:05.338Z,8.80
2018-03-08T12:45:08.218Z,8.70
2018-03-08T12:46:08.501Z,8.70
2018-03-08T12:47:11.079Z,8.70
2018-03-08T12:48:05.679Z,8.60
2018-03-08T12:49:05.825Z,8.60
2018-03-08T12:50:05.798Z,8.60
2018-03-08T12:51:05.775Z,8.50
2018-03-08T12:52:05.805Z,8.50
2018-03-08T12:53:08.858Z,8.40
2018-03-08T12:54:10.208Z,8.40
2018-03-08T12:55:05.496Z,8.40
2018-03-08T12:56:05.431Z,8.40
2018-03-08T12:57:07.950Z,8.40
2018-03-08T12:58:05.846Z,8.50
2018-03-08T12:59:08.401Z,8.50
2018-03-08T13:00:05.648Z,8.50
2018-03-08T13:01:08.209Z,8.60
2018-03-08T13:02:05.814Z,8.60
2018-03-08T13:03:08.323Z,8.70
2018-03-08T13:04:05.620Z,8.60
2018-03-08T13:05:10.051Z,8.70
2018-03-08T13:06:05.793Z,8.60
2018-03-08T13:07:08.379Z,8.70
2018-03-08T13:08:09.355Z,8.70
2018-03-08T13:09:11.041Z,8.70
2018-03-08T13:10:05.511Z,8.70
2018-03-08T13:11:08.048Z,8.70
2018-03-08T13:12:05.343Z,8.60
2018-03-08T13:13:05.026Z,8.70
2018-03-08T13:14:05.731Z,8.60
2018-03-08T13:15:05.334Z,8.60
2018-03-08T13:16:05.232Z,8.60
2018-03-08T13:17:05.945Z,8.60
2018-03-08T13:18:05.825Z,8.60
2018-03-08T13:19:08.619Z,8.50